createdAt,value
2019-03-26T00:02:27.832Z,100433.34
2019-03-26T00:04:56.474Z,100439.14
2019-03-26T00:07:25.079Z,100435.22
2019-03-26T00:09:53.898Z,100429.33
2019-03-26T00:12:22.462Z,100420.69
2019-03-26T00:14:51.037Z,100429.52
2019-03-26T00:17:19.645Z,100424.09
2019-03-26T00:19:48.350Z,100427.19
2019-03-26T00:22:17.026Z,100423.34
2019-03-26T00:24:45.607Z,100426.38
2019-03-26T00:27:14.225Z,100428.27
2019-03-26T00:29:48.037Z,100433.69
2019-03-26T00:32:16.683Z,100433.40
2019-03-26T00:34:45.301Z,100436.03
2019-03-26T00:37:13.882Z,100437.00
2019-03-26T00:39:42.741Z,100435.11
2019-03-26T00:42:11.369Z,100432.35
2019-03-26T00:44:39.983Z,100433.70
2019-03-26T00:47:08.593Z,100436.98
2019-03-26T00:49:37.213Z,100444.92
2019-03-26T00:52:05.876Z,100447.27
2019-03-26T00:54:34.464Z,100448.02
2019-03-26T00:57:03.040Z,100452.16
2019-03-26T00:59:31.912Z,100455.00
2019-03-26T01:02:00.531Z,100460.83
2019-03-26T01:04:32.988Z,100458.02
2019-03-26T01:06:59.761Z,100463.46
2019-03-26T01:09:28.518Z,100473.33
2019-03-26T01:11:57.134Z,100477.76
2019-03-26T01:14:25.744Z,100486.16
2019-03-26T01:16:55.218Z,100484.47
2019-03-26T01:19:23.871Z,100489.70
2019-03-26T01:21:52.499Z,100488.17
2019-03-26T01:24:21.128Z,100487.31
2019-03-26T01:26:49.723Z,100489.62
2019-03-26T01:29:18.629Z,100492.62
2019-03-26T01:31:47.193Z,100488.20
2019-03-26T01:34:15.805Z,100492.88
2019-03-26T01:36:44.409Z,100495.25
2019-03-26T01:39:13.042Z,100489.80
2019-03-26T01:41:41.620Z,100490.56
2019-03-26T01:44:12.215Z,100491.05
2019-03-26T01:46:40.845Z,100494.37
2019-03-26T01:49:09.701Z,100501.91
2019-03-26T01:51:38.323Z,100501.33
2019-03-26T01:54:06.877Z,100497.99
2019-03-26T01:56:35.497Z,100497.77
2019-03-26T01:59:04.735Z,100501.86
2019-03-26T02:01:33.356Z,100505.35
2019-03-26T02:04:01.980Z,100512.24
2019-03-26T02:06:30.533Z,100514.20
2019-03-26T02:09:18.285Z,100514.11
2019-03-26T02:11:46.854Z,100514.58
2019-03-26T02:14:15.474Z,100521.70
2019-03-26T02:16:44.065Z,100521.91
2019-03-26T02:19:12.939Z,100525.03
2019-03-26T02:21:41.504Z,100523.08
2019-03-26T02:24:10.317Z,100530.22
2019-03-26T02:26:38.923Z,100531.81
2019-03-26T02:29:07.459Z,100525.55
2019-03-26T02:31:36.038Z,100523.59
2019-03-26T02:34:04.628Z,100519.73
2019-03-26T02:36:33.222Z,100522.98
2019-03-26T02:39:01.833Z,100524.38
2019-03-26T02:41:30.430Z,100528.25
2019-03-26T02:43:59.042Z,100518.33
2019-03-26T02:46:27.624Z,100523.70
2019-03-26T02:48:56.263Z,100523.28
2019-03-26T02:51:24.859Z,100529.98
2019-03-26T02:53:53.517Z,100529.56
2019-03-26T02:56:22.140Z,100531.38
2019-03-26T02:58:50.772Z,100540.78
2019-03-26T03:01:19.337Z,100538.08
2019-03-26T03:03:47.943Z,100539.59
2019-03-26T03:06:16.505Z,100506.88
2019-03-26T03:08:45.117Z,100538.70
2019-03-26T03:11:13.677Z,100540.81
2019-03-26T03:13:42.282Z,100537.73
2019-03-26T03:16:10.904Z,100542.14
2019-03-26T03:18:39.548Z,100546.00
2019-03-26T03:21:08.154Z,100555.47
2019-03-26T03:23:36.735Z,100554.74
2019-03-26T03:26:05.324Z,100548.97
2019-03-26T03:28:33.958Z,100552.13
2019-03-26T03:31:02.580Z,100552.58
2019-03-26T03:33:31.241Z,100547.66
2019-03-26T03:36:02.732Z,100555.21
2019-03-26T03:38:31.363Z,100552.29
2019-03-26T03:40:59.953Z,100551.52
2019-03-26T03:43:28.558Z,100560.89
2019-03-26T03:45:57.520Z,100565.52
2019-03-26T03:48:26.397Z,100572.37
2019-03-26T03:50:56.201Z,100573.91
2019-03-26T03:53:26.167Z,100577.30
2019-03-26T03:55:55.683Z,100574.22
2019-03-26T03:58:25.639Z,100572.54
2019-03-26T04:00:54.229Z,100578.04
2019-03-26T04:03:22.781Z,100581.38
2019-03-26T04:06:07.755Z,100576.70
2019-03-26T04:08:21.870Z,100577.73
2019-03-26T04:10:50.663Z,100584.89
2019-03-26T04:13:19.293Z,100586.05
2019-03-26T04:15:47.903Z,100586.30
2019-03-26T04:18:16.491Z,100592.82
2019-03-26T04:20:45.400Z,100588.84
2019-03-26T04:23:14.025Z,100595.47
2019-03-26T04:25:42.633Z,100597.99
2019-03-26T04:28:11.246Z,100601.48
2019-03-26T04:30:39.822Z,100600.34
2019-03-26T04:33:08.432Z,100593.30
2019-03-26T04:35:37.078Z,100600.73
2019-03-26T04:38:05.704Z,100596.17
2019-03-26T04:40:34.271Z,100598.35
2019-03-26T04:43:02.916Z,100598.52
2019-03-26T04:45:31.549Z,100592.64
2019-03-26T04:48:00.125Z,100592.97
2019-03-26T04:50:28.792Z,100589.08
2019-03-26T04:52:57.389Z,100594.03
2019-03-26T04:55:26.048Z,100596.86
2019-03-26T04:57:54.685Z,100596.89
2019-03-26T05:00:23.294Z,100589.84
2019-03-26T05:02:51.937Z,100593.73
2019-03-26T05:05:20.520Z,100601.48
2019-03-26T05:07:49.147Z,100598.66
2019-03-26T05:10:17.796Z,100600.70
2019-03-26T05:12:46.407Z,100611.34
2019-03-26T05:15:15.024Z,100606.33
2019-03-26T05:17:43.660Z,100605.48
2019-03-26T05:20:12.361Z,100603.96
2019-03-26T05:22:40.950Z,100605.70
2019-03-26T05:25:10.042Z,100607.58
2019-03-26T05:27:45.255Z,100617.65
2019-03-26T05:30:09.399Z,100618.91
2019-03-26T05:32:38.161Z,100625.44
2019-03-26T05:35:08.438Z,100625.46
2019-03-26T05:37:37.047Z,100629.46
2019-03-26T05:40:08.902Z,100629.11
2019-03-26T05:42:39.567Z,100629.81
2019-03-26T05:45:13.496Z,100634.38
2019-03-26T05:47:42.172Z,100633.79
2019-03-26T05:50:11.242Z,100628.75
2019-03-26T05:52:39.864Z,100636.72
2019-03-26T05:55:09.729Z,100642.93
2019-03-26T05:57:38.521Z,100643.79
2019-03-26T06:00:16.391Z,100644.89
2019-03-26T06:02:44.989Z,100648.68
2019-03-26T06:05:33.856Z,100649.17
2019-03-26T06:08:39.244Z,100654.87
2019-03-26T06:11:10.078Z,100661.67
2019-03-26T06:13:38.730Z,100659.09
2019-03-26T06:16:07.332Z,100656.69
2019-03-26T06:18:35.915Z,100656.48
2019-03-26T06:21:04.471Z,100654.31
2019-03-26T06:23:33.102Z,100655.22
2019-03-26T06:26:01.742Z,100656.59
2019-03-26T06:28:30.353Z,100659.77
2019-03-26T06:30:59.035Z,100668.74
2019-03-26T06:33:27.622Z,100668.56
2019-03-26T06:35:56.251Z,100659.24
2019-03-26T06:38:24.894Z,100663.83
2019-03-26T06:40:53.569Z,100661.33
2019-03-26T06:43:22.204Z,100660.25
2019-03-26T06:45:50.787Z,100667.80
2019-03-26T06:48:19.437Z,100672.08
2019-03-26T06:50:48.001Z,100676.73
2019-03-26T06:53:16.652Z,100671.78
2019-03-26T06:55:45.254Z,100659.97
2019-03-26T06:58:13.891Z,100666.33
2019-03-26T07:00:42.641Z,100674.50
2019-03-26T07:03:11.202Z,100678.53
2019-03-26T07:05:39.881Z,100681.16
2019-03-26T07:08:08.620Z,100685.45
2019-03-26T07:10:37.463Z,100685.88
2019-03-26T07:13:06.082Z,100687.91
2019-03-26T07:15:34.745Z,100682.84
2019-03-26T07:18:03.420Z,100688.98
2019-03-26T07:20:32.152Z,100678.84
2019-03-26T07:23:00.718Z,100684.40
2019-03-26T07:25:29.296Z,100682.30
2019-03-26T07:27:57.913Z,100678.69
2019-03-26T07:30:47.947Z,100687.94
2019-03-26T07:33:16.654Z,100683.16
2019-03-26T07:35:45.352Z,100687.27
2019-03-26T07:38:13.967Z,100687.44
2019-03-26T07:40:42.622Z,100690.16
2019-03-26T07:43:11.200Z,100690.23
2019-03-26T07:45:39.840Z,100689.95
2019-03-26T07:48:08.447Z,100698.98
2019-03-26T07:50:37.283Z,100706.80
2019-03-26T07:53:05.906Z,100709.25
2019-03-26T07:55:34.525Z,100709.48
2019-03-26T07:58:03.404Z,100719.45
2019-03-26T08:00:34.842Z,100723.72
2019-03-26T08:03:03.630Z,100722.88
2019-03-26T08:05:32.265Z,100721.62
2019-03-26T08:08:00.836Z,100716.55
2019-03-26T08:10:29.702Z,100708.91
2019-03-26T08:12:58.319Z,100708.00
2019-03-26T08:15:26.935Z,100709.59
2019-03-26T08:17:55.572Z,100711.34
2019-03-26T08:20:24.321Z,100712.88
2019-03-26T08:22:52.975Z,100718.86
2019-03-26T08:25:21.598Z,100719.73
2019-03-26T08:27:50.236Z,100722.89
2019-03-26T08:30:19.006Z,100721.33
2019-03-26T08:32:47.585Z,100715.30
2019-03-26T08:35:16.158Z,100720.89
2019-03-26T08:37:45.106Z,100716.17
2019-03-26T08:40:13.901Z,100716.06
2019-03-26T08:42:42.487Z,100714.75
2019-03-26T08:45:11.445Z,100720.02
2019-03-26T08:47:40.060Z,100720.54
2019-03-26T08:50:10.362Z,100715.45
2019-03-26T08:52:39.045Z,100718.27
2019-03-26T08:55:10.663Z,100718.29
2019-03-26T08:57:39.254Z,100722.25
2019-03-26T09:00:10.710Z,100725.41
2019-03-26T09:02:39.287Z,100725.00
2019-03-26T09:05:07.961Z,100729.69
2019-03-26T09:07:36.571Z,100727.38
2019-03-26T09:10:05.957Z,100730.65
2019-03-26T09:12:34.580Z,100726.50
2019-03-26T09:15:03.575Z,100737.11
2019-03-26T09:17:32.142Z,100747.80
2019-03-26T09:20:01.081Z,100741.30
2019-03-26T09:22:29.678Z,100740.80
2019-03-26T09:24:58.315Z,100740.58
2019-03-26T09:27:26.867Z,100739.06
2019-03-26T09:29:55.468Z,100744.44
2019-03-26T09:32:24.076Z,100744.02
2019-03-26T09:34:52.670Z,100749.91
2019-03-26T09:37:21.235Z,100745.98
2019-03-26T09:39:49.895Z,100741.84
2019-03-26T09:42:18.480Z,100742.22
2019-03-26T09:44:47.081Z,100744.63
2019-03-26T09:47:16.757Z,100740.20
2019-03-26T09:49:45.775Z,100736.22
2019-03-26T09:52:14.394Z,100736.60
2019-03-26T09:54:42.977Z,100744.03
2019-03-26T09:57:11.589Z,100743.17
2019-03-26T09:59:45.318Z,100743.78
2019-03-26T10:02:13.926Z,100740.06
2019-03-26T10:04:42.474Z,100742.80
2019-03-26T10:07:20.885Z,100752.70
2019-03-26T10:09:41.614Z,100747.55
2019-03-26T10:12:10.250Z,100753.83
2019-03-26T10:14:38.870Z,100748.35
2019-03-26T10:17:07.505Z,100748.22
2019-03-26T10:19:36.310Z,100736.13
2019-03-26T10:22:04.964Z,100729.52
2019-03-26T10:24:33.585Z,100728.20
2019-03-26T10:27:02.257Z,100723.19
2019-03-26T10:29:31.366Z,100716.32
2019-03-26T10:32:00.091Z,100713.23
2019-03-26T10:34:28.720Z,100708.50
2019-03-26T10:36:57.339Z,100712.95
2019-03-26T10:39:26.093Z,100705.30
2019-03-26T10:41:55.069Z,100708.34
2019-03-26T10:44:23.658Z,100704.47
2019-03-26T10:46:52.302Z,100705.88
2019-03-26T10:49:21.130Z,100698.31
2019-03-26T10:51:49.761Z,100699.78
2019-03-26T10:54:18.374Z,100707.09
2019-03-26T10:56:46.965Z,100714.56
2019-03-26T10:59:20.916Z,100710.73
2019-03-26T11:01:49.900Z,100707.33
2019-03-26T11:04:18.543Z,100705.14
2019-03-26T11:06:47.142Z,100704.84
2019-03-26T11:09:25.601Z,100695.38
2019-03-26T11:11:50.742Z,100695.33
2019-03-26T11:14:19.399Z,100692.25
2019-03-26T11:16:48.029Z,100690.84
2019-03-26T11:19:16.564Z,100695.15
2019-03-26T11:21:45.171Z,100698.98
2019-03-26T11:24:13.765Z,100703.20
2019-03-26T11:26:42.423Z,100701.31
2019-03-26T11:29:10.972Z,100698.93
2019-03-26T11:31:39.591Z,100692.12
2019-03-26T11:34:08.234Z,100694.37
2019-03-26T11:36:36.824Z,100693.12
2019-03-26T11:39:07.329Z,100684.36
2019-03-26T11:41:35.954Z,100692.06
2019-03-26T11:44:04.997Z,100689.62
2019-03-26T11:46:33.922Z,100682.95
2019-03-26T11:49:02.515Z,100681.76
2019-03-26T11:51:31.144Z,100676.30
2019-03-26T11:53:59.756Z,100680.34
2019-03-26T11:56:28.353Z,100673.69
2019-03-26T11:58:56.922Z,100672.98
2019-03-26T12:01:25.587Z,100671.44
2019-03-26T12:03:54.185Z,100669.89
2019-03-26T12:06:22.835Z,100669.62
2019-03-26T12:08:51.486Z,100674.07
2019-03-26T12:11:20.116Z,100679.17
2019-03-26T12:13:48.839Z,100679.19
2019-03-26T12:16:17.533Z,100673.98
2019-03-26T12:18:46.125Z,100669.57
2019-03-26T12:21:14.765Z,100665.46
2019-03-26T12:23:43.383Z,100671.95
2019-03-26T12:26:12.008Z,100667.04
2019-03-26T12:28:40.666Z,100666.73
2019-03-26T12:31:09.345Z,100659.66
2019-03-26T12:33:37.951Z,100667.13
2019-03-26T12:36:06.625Z,100661.84
2019-03-26T12:38:35.250Z,100664.34
2019-03-26T12:41:03.924Z,100663.58
2019-03-26T12:43:32.515Z,100659.36
2019-03-26T12:46:02.012Z,100650.54
2019-03-26T12:48:30.734Z,100650.50
2019-03-26T12:50:59.357Z,100630.89
2019-03-26T12:53:27.960Z,100636.45
2019-03-26T12:55:56.560Z,100637.59
2019-03-26T12:58:31.645Z,100643.56
2019-03-26T13:00:55.677Z,100643.58
2019-03-26T13:03:24.287Z,100646.45
2019-03-26T13:05:52.871Z,100634.91
2019-03-26T13:08:21.449Z,100631.50
2019-03-26T13:10:53.744Z,100622.48
2019-03-26T13:13:20.569Z,100623.67
2019-03-26T13:15:49.231Z,100626.20
2019-03-26T13:18:17.780Z,100605.82
2019-03-26T13:20:47.789Z,100609.69
2019-03-26T13:23:16.591Z,100614.19
2019-03-26T13:25:45.250Z,100617.60
2019-03-26T13:28:13.872Z,100630.94
2019-03-26T13:30:42.500Z,100615.50
2019-03-26T13:33:11.098Z,100612.14
2019-03-26T13:35:39.685Z,100617.61
2019-03-26T13:38:08.268Z,100626.35
2019-03-26T13:40:36.990Z,100622.11
2019-03-26T13:43:05.592Z,100614.98
2019-03-26T13:45:34.214Z,100610.83
2019-03-26T13:48:02.841Z,100619.31
2019-03-26T13:50:31.464Z,100620.00
2019-03-26T13:53:00.127Z,100612.85
2019-03-26T13:55:28.699Z,100607.04
2019-03-26T13:57:57.266Z,100624.41
2019-03-26T14:00:37.918Z,100609.66
2019-03-26T14:03:06.737Z,100621.75
2019-03-26T14:05:35.442Z,100613.82
2019-03-26T14:08:04.157Z,100613.58
2019-03-26T14:10:40.675Z,100609.47
2019-03-26T14:13:03.367Z,100592.89
2019-03-26T14:15:31.943Z,100584.32
2019-03-26T14:18:02.576Z,100587.80
2019-03-26T14:20:31.472Z,100589.20
2019-03-26T14:23:00.175Z,100598.92
2019-03-26T14:25:28.734Z,100597.48
2019-03-26T14:27:57.595Z,100591.96
2019-03-26T14:30:44.171Z,100599.23
2019-03-26T14:33:13.379Z,100596.10
2019-03-26T14:35:41.960Z,100608.88
2019-03-26T14:38:10.654Z,100603.02
2019-03-26T14:40:39.283Z,100601.52
2019-03-26T14:43:07.939Z,100601.88
2019-03-26T14:45:36.565Z,100596.86
2019-03-26T14:48:05.377Z,100595.50
2019-03-26T14:50:33.995Z,100598.79
2019-03-26T14:53:02.632Z,100596.29
2019-03-26T14:55:31.274Z,100607.86
2019-03-26T14:57:59.885Z,100605.20
2019-03-26T15:00:28.508Z,100607.21
2019-03-26T15:02:57.151Z,100600.12
2019-03-26T15:05:25.694Z,100601.09
2019-03-26T15:07:54.281Z,100604.80
2019-03-26T15:10:23.582Z,100605.88
2019-03-26T15:12:52.315Z,100598.98
2019-03-26T15:15:20.908Z,100595.30
2019-03-26T15:17:49.526Z,100604.09
2019-03-26T15:20:18.148Z,100607.38
2019-03-26T15:22:46.830Z,100600.66
2019-03-26T15:25:15.414Z,100601.77
2019-03-26T15:27:43.988Z,100599.05
2019-03-26T15:30:13.096Z,100608.48
2019-03-26T15:32:41.704Z,100604.41
2019-03-26T15:35:10.618Z,100597.45
2019-03-26T15:37:39.315Z,100597.31
2019-03-26T15:40:08.685Z,100598.17
2019-03-26T15:42:37.277Z,100590.55
2019-03-26T15:45:06.463Z,100593.47
2019-03-26T15:47:35.120Z,100586.48
2019-03-26T15:50:04.577Z,100593.15
2019-03-26T15:52:33.175Z,100588.35
2019-03-26T15:55:01.798Z,100584.20
2019-03-26T15:57:30.456Z,100581.05
2019-03-26T15:59:59.053Z,100586.11
2019-03-26T16:02:27.686Z,100583.88
2019-03-26T16:04:56.270Z,100583.31
2019-03-26T16:07:24.880Z,100587.45
2019-03-26T16:09:53.481Z,100585.17
2019-03-26T16:12:22.147Z,100584.77
2019-03-26T16:14:50.763Z,100585.44
2019-03-26T16:17:19.539Z,100585.31
2019-03-26T16:19:58.226Z,100590.02
2019-03-26T16:22:26.888Z,100590.95
2019-03-26T16:24:55.486Z,100594.50
2019-03-26T16:27:24.054Z,100591.25
2019-03-26T16:29:52.673Z,100588.27
2019-03-26T16:32:21.325Z,100586.78
2019-03-26T16:34:49.956Z,100585.41
2019-03-26T16:37:18.467Z,100586.58
2019-03-26T16:39:47.084Z,100590.84
2019-03-26T16:42:15.625Z,100588.62
2019-03-26T16:44:44.385Z,100589.56
2019-03-26T16:47:12.989Z,100585.16
2019-03-26T16:49:41.673Z,100586.91
2019-03-26T16:52:10.315Z,100585.35
2019-03-26T16:54:38.928Z,100591.97
2019-03-26T16:57:07.561Z,100594.20
2019-03-26T16:59:36.171Z,100598.12
2019-03-26T17:02:04.888Z,100595.98
2019-03-26T17:04:33.466Z,100601.32
2019-03-26T17:07:02.022Z,100595.45
2019-03-26T17:09:30.623Z,100599.28
2019-03-26T17:12:03.428Z,100600.84
2019-03-26T17:14:29.731Z,100598.31
2019-03-26T17:16:58.399Z,100602.91
2019-03-26T17:19:27.014Z,100603.03
2019-03-26T17:21:55.700Z,100599.88
2019-03-26T17:24:24.302Z,100601.28
2019-03-26T17:26:52.908Z,100601.01
2019-03-26T17:29:21.476Z,100606.05
2019-03-26T17:31:53.580Z,100610.95
2019-03-26T17:34:21.933Z,100579.02
2019-03-26T17:36:50.562Z,100605.50
2019-03-26T17:39:19.169Z,100605.75
2019-03-26T17:41:47.844Z,100602.22
2019-03-26T17:44:16.395Z,100608.80
2019-03-26T17:46:45.048Z,100609.91
2019-03-26T17:49:13.645Z,100614.06
2019-03-26T17:51:42.331Z,100614.43
2019-03-26T17:54:10.903Z,100614.73
2019-03-26T17:56:39.598Z,100618.66
2019-03-26T17:59:08.249Z,100617.16
2019-03-26T18:01:36.936Z,100615.48
2019-03-26T18:04:05.676Z,100620.22
2019-03-26T18:06:34.282Z,100616.06
2019-03-26T18:09:03.920Z,100625.58
2019-03-26T18:11:32.522Z,100619.89
2019-03-26T18:14:03.855Z,100625.34
2019-03-26T18:16:32.487Z,100627.24
2019-03-26T18:19:01.133Z,100625.61
2019-03-26T18:21:29.843Z,100631.49
2019-03-26T18:23:58.551Z,100636.09
2019-03-26T18:26:27.210Z,100632.38
2019-03-26T18:28:55.802Z,100635.25
2019-03-26T18:31:24.922Z,100639.31
2019-03-26T18:33:53.539Z,100639.77
2019-03-26T18:36:22.263Z,100636.52
2019-03-26T18:38:50.857Z,100638.84
2019-03-26T18:41:20.122Z,100642.60
2019-03-26T18:43:48.835Z,100644.04
2019-03-26T18:46:17.494Z,100643.02
2019-03-26T18:48:46.098Z,100646.46
2019-03-26T18:51:14.789Z,100648.20
2019-03-26T18:53:43.807Z,100649.42
2019-03-26T18:56:12.581Z,100643.47
2019-03-26T18:58:41.228Z,100644.83
2019-03-26T19:01:09.877Z,100647.56
2019-03-26T19:03:38.509Z,100649.11
2019-03-26T19:06:07.325Z,100642.56
2019-03-26T19:08:36.095Z,100647.78
2019-03-26T19:11:04.793Z,100641.97
2019-03-26T19:13:33.453Z,100647.56
2019-03-26T19:16:03.202Z,100650.17
2019-03-26T19:18:31.923Z,100647.13
2019-03-26T19:21:02.488Z,100652.38
2019-03-26T19:23:31.187Z,100647.98
2019-03-26T19:25:59.918Z,100650.72
2019-03-26T19:28:28.623Z,100649.15
2019-03-26T19:31:08.109Z,100648.92
2019-03-26T19:33:36.853Z,100650.17
2019-03-26T19:36:05.482Z,100660.03
2019-03-26T19:38:34.366Z,100659.58
2019-03-26T19:41:03.082Z,100658.09
2019-03-26T19:43:31.795Z,100661.39
2019-03-26T19:46:00.480Z,100668.19
2019-03-26T19:48:29.304Z,100668.19
2019-03-26T19:50:58.047Z,100663.36
2019-03-26T19:53:26.911Z,100664.88
2019-03-26T19:55:55.695Z,100662.27
2019-03-26T19:58:24.320Z,100662.65
2019-03-26T20:00:55.740Z,100672.24
2019-03-26T20:03:24.443Z,100670.24
2019-03-26T20:05:53.016Z,100673.48
2019-03-26T20:08:21.725Z,100678.56
2019-03-26T20:10:50.453Z,100677.56
2019-03-26T20:13:24.779Z,100686.12
2019-03-26T20:15:49.771Z,100678.27
2019-03-26T20:18:18.445Z,100684.22
2019-03-26T20:20:47.179Z,100688.03
2019-03-26T20:23:15.994Z,100689.78
2019-03-26T20:25:44.561Z,100693.86
2019-03-26T20:28:13.236Z,100697.50
2019-03-26T20:30:46.995Z,100707.86
2019-03-26T20:33:15.695Z,100702.52
2019-03-26T20:35:44.380Z,100705.66
2019-03-26T20:38:13.101Z,100701.82
2019-03-26T20:40:41.971Z,100722.16
2019-03-26T20:43:10.633Z,100719.98
2019-03-26T20:45:39.406Z,100725.81
2019-03-26T20:48:08.140Z,100726.55
2019-03-26T20:50:36.945Z,100719.80
2019-03-26T20:53:05.572Z,100718.16
2019-03-26T20:55:35.096Z,100719.42
2019-03-26T20:58:04.438Z,100727.63
2019-03-26T21:00:36.032Z,100721.43
2019-03-26T21:03:04.853Z,100720.89
2019-03-26T21:05:33.480Z,100721.53
2019-03-26T21:08:02.155Z,100719.53
2019-03-26T21:10:30.794Z,100725.76
2019-03-26T21:12:59.423Z,100725.36
2019-03-26T21:15:28.064Z,100732.08
2019-03-26T21:17:56.689Z,100728.72
2019-03-26T21:20:25.327Z,100734.30
2019-03-26T21:22:54.007Z,100727.70
2019-03-26T21:25:22.638Z,100730.83
2019-03-26T21:27:51.282Z,100729.48
2019-03-26T21:30:20.154Z,100725.86
2019-03-26T21:32:48.784Z,100725.37
2019-03-26T21:35:17.350Z,100734.95
2019-03-26T21:37:45.966Z,100737.14
2019-03-26T21:40:16.358Z,100737.24
2019-03-26T21:42:45.067Z,100731.52
2019-03-26T21:45:14.615Z,100732.89
2019-03-26T21:47:43.205Z,100726.19
2019-03-26T21:50:12.417Z,100728.19
2019-03-26T21:52:40.995Z,100732.14
2019-03-26T21:55:13.222Z,100735.10
2019-03-26T21:57:40.472Z,100735.58
2019-03-26T22:00:09.694Z,100737.08
2019-03-26T22:02:38.303Z,100739.78
2019-03-26T22:05:09.012Z,100744.69
2019-03-26T22:07:37.643Z,100749.59
2019-03-26T22:10:07.322Z,100755.30
2019-03-26T22:12:36.795Z,100758.28
2019-03-26T22:15:07.772Z,100762.44
2019-03-26T22:17:36.409Z,100761.18
2019-03-26T22:20:06.146Z,100752.70
2019-03-26T22:22:34.752Z,100753.99
2019-03-26T22:25:03.629Z,100767.98
2019-03-26T22:27:32.278Z,100762.23
2019-03-26T22:30:00.920Z,100766.97
2019-03-26T22:32:29.534Z,100767.29
2019-03-26T22:34:58.190Z,100766.02
2019-03-26T22:37:26.780Z,100766.35
2019-03-26T22:39:55.417Z,100765.91
2019-03-26T22:42:23.973Z,100774.88
2019-03-26T22:44:52.559Z,100772.50
2019-03-26T22:47:21.105Z,100777.48
2019-03-26T22:49:49.782Z,100780.51
2019-03-26T22:52:18.381Z,100779.55
2019-03-26T22:54:47.011Z,100781.69
2019-03-26T22:57:15.604Z,100781.67
2019-03-26T22:59:44.184Z,100781.97
2019-03-26T23:02:12.808Z,100785.21
2019-03-26T23:04:41.423Z,100781.93
2019-03-26T23:07:10.015Z,100776.77
2019-03-26T23:09:39.237Z,100771.31
2019-03-26T23:12:08.123Z,100771.64
2019-03-26T23:14:44.913Z,100773.40
2019-03-26T23:17:07.283Z,100776.46
2019-03-26T23:19:35.909Z,100776.53
2019-03-26T23:22:04.453Z,100769.43
2019-03-26T23:24:33.103Z,100771.59
2019-03-26T23:27:01.704Z,100776.55
2019-03-26T23:29:30.285Z,100777.91
2019-03-26T23:31:58.921Z,100780.31
2019-03-26T23:34:27.569Z,100782.19
2019-03-26T23:36:56.176Z,100771.52
2019-03-26T23:39:24.764Z,100770.31
2019-03-26T23:41:53.358Z,100767.80
2019-03-26T23:44:26.203Z,100772.13
2019-03-26T23:46:52.466Z,100775.33
2019-03-26T23:49:21.047Z,100777.30
2019-03-26T23:51:49.658Z,100777.82
2019-03-26T23:54:18.247Z,100780.36
2019-03-26T23:56:46.878Z,100779.47
2019-03-26T23:59:15.480Z,100777.39
